ADDS TAF Board (Experimental) INFO Settings
IDs: Format: Expanded Condensed

KMIA - Miami Intl, FL, US

Issued at 0252 UTC 14 Feb 2016
Updated at: 0350 UTC 14 Feb 2016
Time0253Z 14/04Z 14/05Z 14/06Z 14/07Z 14/08Z 14/09Z 14/10Z 14/11Z 14/12Z 14/13Z 14/14Z 14/15Z 14/16Z
Type OBS PRVL PRVL PRVL
  [TEMP]  
PRVL
  [TEMP]  
PRVL
  [TEMP]  
PRVL
  [TEMP]  
PRVL PRVL PRVL PRVL PRVL PRVL PRVL
VIS 10 >6 >6 >6 >6 >6 >6 >6 >6 >6 >6 >6 >6 >6
CIG -- -- -- --
  [--]  
--
  [--]  
--
  [--]  
--
  [--]  
-- -- -- -- -- -- --
Cover CLR SKC SKC SKC
  [SKC]  
SKC
  [SKC]  
SKC
  [SKC]  
SKC
  [SKC]  
SKC SKC SKC SKC SCT SCT SCT
FltCat VFR VFR VFR VFR
  [VFR]  
VFR
  [VFR]  
VFR
  [VFR]  
VFR
  [VFR]  
VFR VFR VFR VFR VFR VFR VFR
WX -- -- -- --
  [--]  
--
  [--]  
--
  [--]  
--
  [--]  
-- -- -- -- -- -- --
WDir VRB 20 20 20
[340]
20
[340]
20
[340]
20
[340]
20 20 20 20 70 70 70
WSpd 0 5 5 5
  [8]  
5
  [8]  
5
  [8]  
5
  [8]  
5 5 5 5 13 13 13
WGst -- -- -- --
  [--]  
--
  [--]  
--
  [--]  
--
  [--]  
-- -- -- -- 18 18 18
R08/26
XWnd VRB 5 5 5 5 5 5 5 5 5 5 4 4 4
XGst -- -- -- 0 0 0 0 -- -- -- -- 5 5 5
HWnd VRB 2 2 2 2 2 2 2 2 2 2 12 12 12
HGst -- -- -- 0 0 0 0 -- -- -- -- 17 17 17
R09/27
XWnd VRB 5 5 5 5 5 5 5 5 5 5 4 4 4
XGst -- -- -- 0 0 0 0 -- -- -- -- 5 5 5
HWnd VRB 2 2 2 2 2 2 2 2 2 2 12 12 12
HGst -- -- -- 0 0 0 0 -- -- -- -- 17 17 17
R12/30
XWnd VRB 5 5 5 5 5 5 5 5 5 5 10 10 10
XGst -- -- -- 0 0 0 0 -- -- -- -- 14 14 14
HWnd VRB -1 -1 -1 -1 -1 -1 -1 -1 -1 -1 9 9 9
HGst -- -- -- 0 0 0 0 -- -- -- -- 12 12 12

NOTE: TEMPO conditions in [brackets]. Keep in mind TEMPO conditions might be better (lower impact) than prevailing conditions.

Raw TAF
KMIA 140252Z 1403/1424 02005KT P6SM SKC
  TEMPO 1406/1410 34008KT
  FM141400 07013G18KT P6SM SCT035


Raw METAR
KMIA 140253Z 00000KT 10SM CLR 19/09 A3021 RMK AO2 SLP228 T01890094 51010
KMIA 140153Z 02004KT 10SM CLR 20/09 A3020 RMK AO2 SLP226 T02000089
KMIA 140053Z 03005KT 10SM CLR 21/09 A3019 RMK AO2 SLP224 T02060089

METAR Board
Radar Display
Forecast Discussion

TAF Board Legend

Potential Impact
Threat None Slight Moderate High
Visibility (sm) ≥5.1 5.1>X≥3 3>X≥1 <1
Ceiling (100 ft) ≥30.1 30.1>X≥10 10>X≥5 <5
Wind Speed (kt) <10 10≤X<20 20≤X<30 ≥30
Wind Gust (kt) <15 15≤X<25 25≤X<35 ≥35
Weather No Wx Reported VCTS,-TS,-FZRA,SN TS,FZRA +TS,+FZRA,+SN